createdAt,value
2023-07-03T00:03:11.448Z,14.78
2023-07-03T00:06:38.414Z,15.27
2023-07-03T00:10:04.408Z,15.66
2023-07-03T00:13:28.444Z,15.86
2023-07-03T00:16:53.510Z,15.75
2023-07-03T00:20:22.458Z,16.23
2023-07-03T00:23:47.408Z,16.72
2023-07-03T00:27:11.457Z,16.50
2023-07-03T00:30:36.378Z,17.20
2023-07-03T00:34:00.532Z,16.46
2023-07-03T00:37:26.407Z,16.94
2023-07-03T00:40:50.420Z,15.96
2023-07-03T00:44:15.396Z,15.48
2023-07-03T00:47:40.530Z,15.78
2023-07-03T00:51:05.376Z,16.00
2023-07-03T00:54:29.443Z,15.69
2023-07-03T00:57:53.432Z,15.25
2023-07-03T01:01:30.435Z,14.91
2023-07-03T01:05:02.581Z,14.73
2023-07-03T01:08:26.410Z,14.84
2023-07-03T01:11:51.429Z,14.95
2023-07-03T01:15:19.418Z,14.67
2023-07-03T01:18:43.443Z,14.25
2023-07-03T01:22:22.402Z,14.15
2023-07-03T01:25:47.668Z,15.18
2023-07-03T01:29:08.074Z,16.03
2023-07-03T01:32:29.717Z,15.26
2023-07-03T01:35:55.400Z,15.11
2023-07-03T01:39:21.649Z,14.78
2023-07-03T01:42:47.449Z,14.47
2023-07-03T01:46:11.531Z,13.90
2023-07-03T01:50:38.418Z,-139.36
2023-07-03T01:55:31.449Z,-139.36
2023-07-03T01:59:55.457Z,-139.36
2023-07-03T02:04:51.619Z,-139.36
2023-07-03T02:09:15.509Z,-139.36
2023-07-03T02:13:38.467Z,-139.36
2023-07-03T02:18:03.631Z,-139.36
2023-07-03T02:22:44.481Z,-139.36
2023-07-03T02:27:06.442Z,-139.36
2023-07-03T02:31:28.616Z,-139.36
2023-07-03T02:35:51.569Z,-139.36
2023-07-03T02:40:22.556Z,-139.36
2023-07-03T02:44:45.564Z,-139.36
2023-07-03T02:49:08.562Z,-139.36
2023-07-03T02:53:33.464Z,-139.36
2023-07-03T02:58:00.627Z,-139.36
2023-07-03T03:02:25.575Z,-139.36
2023-07-03T03:06:48.583Z,-139.36
2023-07-03T03:11:10.521Z,-139.36
2023-07-03T03:15:35.511Z,-139.36
2023-07-03T03:19:59.146Z,-139.36
2023-07-03T03:24:23.560Z,-139.36
2023-07-03T03:28:45.480Z,-139.36
2023-07-03T03:33:08.594Z,-139.36
2023-07-03T03:37:30.548Z,-139.36
2023-07-03T03:41:53.608Z,-139.36
2023-07-03T03:46:17.538Z,-139.36
2023-07-03T03:50:41.532Z,-139.36
2023-07-03T03:54:47.516Z,13.90
2023-07-03T03:59:10.544Z,-139.36
2023-07-03T04:03:33.484Z,-139.36
2023-07-03T04:07:55.525Z,-139.36
2023-07-03T04:12:17.505Z,-139.36
2023-07-03T04:16:40.552Z,-139.36
2023-07-03T04:21:02.585Z,-139.36
2023-07-03T04:25:25.504Z,-139.36
2023-07-03T04:29:48.497Z,-139.36
2023-07-03T04:34:12.538Z,-139.36
2023-07-03T04:38:35.551Z,-139.36
2023-07-03T04:42:57.618Z,-139.36
2023-07-03T04:47:19.530Z,-139.36
2023-07-03T04:51:42.513Z,-139.36
2023-07-03T04:56:05.559Z,-139.36
2023-07-03T05:00:29.655Z,-139.36
2023-07-03T05:04:51.555Z,-139.36
2023-07-03T05:09:14.556Z,-139.36
2023-07-03T05:13:36.550Z,-139.36
2023-07-03T05:18:04.581Z,-139.36
2023-07-03T05:22:27.523Z,-139.36
2023-07-03T05:26:50.514Z,-139.36
2023-07-03T05:31:14.556Z,-139.36
2023-07-03T05:35:30.127Z,-139.36
2023-07-03T05:39:47.664Z,-139.36
2023-07-03T05:44:10.514Z,-139.36
2023-07-03T05:48:33.546Z,-139.36
2023-07-03T05:52:55.531Z,-139.36
2023-07-03T05:57:22.528Z,-139.36
2023-07-03T06:01:44.503Z,-139.36
2023-07-03T06:06:06.550Z,-139.36
2023-07-03T06:10:28.505Z,-139.36
2023-07-03T06:14:50.558Z,-139.36
2023-07-03T06:19:13.545Z,-139.36
2023-07-03T06:23:36.561Z,-139.36
2023-07-03T06:27:58.548Z,-139.36
2023-07-03T06:32:21.610Z,-139.36
2023-07-03T06:36:37.443Z,-139.36
2023-07-03T06:40:53.609Z,-139.36
2023-07-03T06:45:16.550Z,-139.36
2023-07-03T06:49:38.542Z,-139.36
2023-07-03T06:54:02.518Z,-139.36
2023-07-03T06:58:24.655Z,-139.36
2023-07-03T07:02:46.616Z,-139.36
2023-07-03T07:07:09.561Z,-139.36
2023-07-03T07:11:31.543Z,-139.36
2023-07-03T07:15:54.547Z,-139.36
2023-07-03T07:20:17.557Z,-139.36
2023-07-03T07:24:39.591Z,-139.36
2023-07-03T07:29:02.575Z,-139.36
2023-07-03T07:33:24.751Z,-139.36
2023-07-03T07:37:41.199Z,-139.36
2023-07-03T07:42:07.587Z,-139.36
2023-07-03T07:46:34.577Z,-139.36
2023-07-03T07:50:56.584Z,-139.36
2023-07-03T07:55:19.562Z,-139.36
2023-07-03T07:59:41.584Z,-139.36
2023-07-03T08:04:03.612Z,-139.36
2023-07-03T08:08:25.598Z,-139.36
2023-07-03T08:12:49.557Z,-139.36
2023-07-03T08:17:11.607Z,-139.36
2023-07-03T08:21:33.574Z,-139.36
2023-07-03T08:25:56.709Z,-139.36
2023-07-03T08:30:20.586Z,-139.36
2023-07-03T08:39:18.197Z,-139.36
2023-07-03T08:43:48.596Z,-139.36
2023-07-03T08:48:13.661Z,-139.36
2023-07-03T08:52:41.566Z,-139.36
2023-07-03T08:57:12.623Z,-139.36
2023-07-03T09:01:44.779Z,-139.36
2023-07-03T09:06:28.605Z,-139.36
2023-07-03T09:10:52.888Z,-139.36
2023-07-03T09:15:17.620Z,-139.36
2023-07-03T09:19:42.566Z,-139.36
2023-07-03T09:24:16.617Z,-139.36
2023-07-03T09:28:41.614Z,-139.36
2023-07-03T09:33:03.727Z,-139.36
2023-07-03T09:37:38.467Z,-139.36
2023-07-03T09:42:05.633Z,-139.36
2023-07-03T09:46:29.621Z,-139.36
2023-07-03T09:51:06.241Z,-139.36
2023-07-03T09:55:34.597Z,-139.36
2023-07-03T10:00:03.636Z,-139.36
2023-07-03T10:13:39.090Z,-139.36
2023-07-03T10:18:03.683Z,-139.36
2023-07-03T10:22:28.585Z,-139.36
2023-07-03T10:27:00.648Z,-139.36
2023-07-03T10:31:27.702Z,-139.36
2023-07-03T10:36:07.603Z,-139.36
2023-07-03T10:40:55.647Z,-139.36
2023-07-03T10:45:21.227Z,-139.36
2023-07-03T10:49:40.683Z,-139.36
2023-07-03T10:54:11.618Z,-139.36
2023-07-03T10:58:37.643Z,-139.36
2023-07-03T11:03:28.663Z,-139.36
2023-07-03T11:08:25.820Z,-139.36
2023-07-03T11:13:22.650Z,-139.36
2023-07-03T11:31:31.649Z,-139.36
2023-07-03T11:36:05.666Z,-139.36
2023-07-03T11:40:39.775Z,-139.36
2023-07-03T11:45:12.720Z,-139.36
2023-07-03T11:49:52.235Z,-139.36
2023-07-03T11:54:09.664Z,-139.36
2023-07-03T11:58:51.631Z,-139.36
2023-07-03T12:03:35.809Z,-139.36
2023-07-03T12:08:02.645Z,-139.36
2023-07-03T12:12:29.706Z,-139.36
2023-07-03T12:16:56.730Z,-139.36
2023-07-03T12:21:26.687Z,-139.36
2023-07-03T12:25:49.891Z,-139.36
2023-07-03T12:30:19.698Z,-139.36
2023-07-03T12:34:41.669Z,-139.36
2023-07-03T12:39:07.677Z,-139.36
2023-07-03T12:43:40.706Z,-139.36
2023-07-03T12:48:18.673Z,-139.36
2023-07-03T12:52:37.852Z,-139.36
2023-07-03T12:56:55.676Z,-139.36
2023-07-03T13:01:22.800Z,-139.36
2023-07-03T13:05:50.064Z,-139.36
2023-07-03T13:10:15.656Z,-139.36
2023-07-03T13:14:42.704Z,-139.36
2023-07-03T13:19:15.649Z,-139.36
2023-07-03T13:23:44.920Z,-139.36
2023-07-03T13:28:07.682Z,-139.36
2023-07-03T13:32:34.712Z,-139.36
2023-07-03T13:37:06.693Z,-139.36
2023-07-03T13:41:28.728Z,-139.36
2023-07-03T13:45:50.848Z,-139.36
2023-07-03T13:50:14.750Z,-139.36
2023-07-03T13:54:34.997Z,-139.36
2023-07-03T13:58:51.744Z,-139.36
2023-07-03T14:03:15.081Z,-139.36
2023-07-03T14:07:37.864Z,-139.36
2023-07-03T14:12:00.715Z,-139.36
2023-07-03T14:16:35.756Z,-139.36
2023-07-03T14:20:26.705Z,-139.36
2023-07-03T14:24:50.824Z,-139.36
2023-07-03T14:29:12.782Z,-139.36
2023-07-03T14:33:34.845Z,-139.36
2023-07-03T14:37:56.743Z,-139.36
2023-07-03T14:42:19.740Z,-139.36
2023-07-03T14:46:41.858Z,-139.36
2023-07-03T14:51:04.769Z,-139.36
2023-07-03T14:55:27.841Z,-139.36
2023-07-03T14:59:49.732Z,-139.36
2023-07-03T15:04:13.062Z,-139.36
2023-07-03T15:08:36.708Z,-139.36
2023-07-03T15:12:59.901Z,-139.36
2023-07-03T15:16:58.742Z,13.90
2023-07-03T15:20:22.734Z,12.97
2023-07-03T15:23:59.820Z,12.91
2023-07-03T15:27:23.750Z,12.90
2023-07-03T15:30:48.747Z,12.98
2023-07-03T15:34:13.719Z,13.12
2023-07-03T15:37:37.742Z,12.85
2023-07-03T15:41:08.781Z,12.82
2023-07-03T15:44:34.771Z,12.71
2023-07-03T15:48:00.772Z,12.76
2023-07-03T15:51:25.897Z,12.67
2023-07-03T15:54:50.741Z,12.62
2023-07-03T15:58:15.754Z,12.65
2023-07-03T16:01:41.777Z,12.60
2023-07-03T16:05:06.776Z,12.40
2023-07-03T16:08:30.721Z,12.33
2023-07-03T16:11:56.771Z,12.32
2023-07-03T16:15:20.715Z,12.19
2023-07-03T16:18:45.792Z,12.27
2023-07-03T16:22:10.725Z,12.54
2023-07-03T16:25:35.876Z,12.54
2023-07-03T16:29:00.750Z,12.36
2023-07-03T16:32:25.857Z,12.72
2023-07-03T16:35:50.024Z,12.67
2023-07-03T16:39:17.933Z,12.94
2023-07-03T16:42:42.806Z,12.78
2023-07-03T16:46:06.774Z,12.83
2023-07-03T16:49:31.751Z,12.79
2023-07-03T16:52:55.800Z,12.71
2023-07-03T16:56:23.770Z,12.95
2023-07-03T16:59:47.770Z,12.83
2023-07-03T17:03:15.787Z,12.89
2023-07-03T17:06:45.769Z,12.83
2023-07-03T17:10:09.767Z,12.85
2023-07-03T17:13:34.791Z,12.73
2023-07-03T17:16:58.882Z,12.88
2023-07-03T17:20:22.901Z,12.80
2023-07-03T17:23:47.782Z,12.84
2023-07-03T17:27:11.786Z,12.80
2023-07-03T17:30:35.749Z,12.71
2023-07-03T17:34:00.945Z,12.61
2023-07-03T17:37:25.796Z,12.28
2023-07-03T17:40:49.806Z,12.68
2023-07-03T17:44:13.788Z,12.73
2023-07-03T17:47:37.829Z,12.74
2023-07-03T17:51:01.770Z,12.74
2023-07-03T17:54:27.912Z,12.79
2023-07-03T17:57:52.757Z,12.75
2023-07-03T18:01:20.101Z,12.75
2023-07-03T18:04:44.770Z,12.61
2023-07-03T18:08:09.826Z,12.56
2023-07-03T18:11:34.792Z,12.45
2023-07-03T18:15:00.000Z,12.51
2023-07-03T18:18:24.780Z,12.68
2023-07-03T18:21:49.822Z,12.65
2023-07-03T18:25:14.783Z,12.69
2023-07-03T18:28:38.850Z,12.61
2023-07-03T18:35:28.837Z,12.68
2023-07-03T18:38:54.825Z,12.65
2023-07-03T18:42:18.847Z,12.64
2023-07-03T18:45:44.722Z,12.68
2023-07-03T18:49:10.820Z,12.56
2023-07-03T18:52:34.820Z,12.49
2023-07-03T18:56:03.828Z,12.62
2023-07-03T18:59:28.129Z,12.73
2023-07-03T19:02:54.007Z,12.63
2023-07-03T19:06:18.832Z,12.54
2023-07-03T19:09:42.921Z,12.66
2023-07-03T19:13:06.838Z,12.54
2023-07-03T19:16:32.984Z,12.63
2023-07-03T19:19:57.841Z,12.64
2023-07-03T19:23:22.848Z,12.67
2023-07-03T19:26:47.831Z,12.66
2023-07-03T19:30:14.859Z,12.75
2023-07-03T19:33:39.835Z,12.70
2023-07-03T19:37:03.838Z,12.64
2023-07-03T19:40:28.816Z,12.66
2023-07-03T19:43:54.062Z,12.73
2023-07-03T19:47:17.861Z,12.61
2023-07-03T19:50:42.818Z,12.66
2023-07-03T19:54:07.851Z,12.64
2023-07-03T19:57:32.851Z,12.66
2023-07-03T20:00:57.911Z,12.65
2023-07-03T20:04:23.245Z,12.83
2023-07-03T20:07:49.822Z,13.02
2023-07-03T20:11:17.879Z,12.91
2023-07-03T20:14:41.824Z,12.96
2023-07-03T20:18:05.964Z,12.93
2023-07-03T20:21:29.834Z,13.08
2023-07-03T20:24:54.885Z,13.12
2023-07-03T20:28:19.825Z,13.20
2023-07-03T20:31:43.898Z,13.30
2023-07-03T20:35:09.829Z,13.41
2023-07-03T20:38:34.981Z,13.53
2023-07-03T20:41:59.847Z,13.67
2023-07-03T20:45:27.016Z,13.93
2023-07-03T20:48:52.844Z,14.06
2023-07-03T20:52:16.868Z,13.91
2023-07-03T20:55:52.095Z,13.95
2023-07-03T20:59:17.865Z,13.76
2023-07-03T21:02:41.969Z,13.69
2023-07-03T21:06:06.879Z,13.63
2023-07-03T21:09:30.871Z,13.64
2023-07-03T21:12:54.837Z,13.72
2023-07-03T21:16:18.937Z,13.80
2023-07-03T21:19:42.840Z,13.86
2023-07-03T21:23:07.887Z,13.91
2023-07-03T21:26:34.857Z,13.83
2023-07-03T21:29:58.878Z,13.74
2023-07-03T21:33:22.853Z,13.63
2023-07-03T21:36:49.058Z,13.58
2023-07-03T21:40:13.861Z,13.72
2023-07-03T21:43:38.904Z,14.51
2023-07-03T21:47:02.848Z,14.14
2023-07-03T21:50:27.912Z,14.40
2023-07-03T21:53:51.872Z,14.71
2023-07-03T21:57:15.908Z,14.51
2023-07-03T22:00:39.869Z,14.47
2023-07-03T22:04:14.915Z,14.46
2023-07-03T22:07:38.947Z,14.35
2023-07-03T22:11:04.893Z,14.02
2023-07-03T22:14:28.857Z,14.32
2023-07-03T22:17:52.958Z,15.35
2023-07-03T22:21:16.869Z,15.84
2023-07-03T22:24:40.911Z,16.31
2023-07-03T22:28:04.886Z,16.18
2023-07-03T22:31:28.914Z,16.55
2023-07-03T22:34:52.900Z,17.10
2023-07-03T22:38:16.903Z,17.44
2023-07-03T22:41:40.908Z,16.22
2023-07-03T22:45:06.047Z,15.68
2023-07-03T22:48:31.027Z,15.01
2023-07-03T22:51:54.898Z,14.15
2023-07-03T22:55:20.919Z,13.87
2023-07-03T22:58:45.971Z,13.83
2023-07-03T23:02:09.906Z,14.23
2023-07-03T23:05:35.037Z,14.65
2023-07-03T23:08:59.910Z,14.82
2023-07-03T23:12:23.934Z,15.08
2023-07-03T23:15:47.922Z,15.18
2023-07-03T23:19:12.934Z,15.36
2023-07-03T23:22:38.899Z,15.23
2023-07-03T23:26:12.934Z,15.73
2023-07-03T23:29:37.910Z,15.92
2023-07-03T23:33:01.988Z,16.01
2023-07-03T23:36:28.934Z,15.96
2023-07-03T23:39:54.973Z,16.14
2023-07-03T23:43:18.948Z,16.80
2023-07-03T23:46:43.972Z,16.62
2023-07-03T23:50:07.955Z,16.26
2023-07-03T23:53:31.912Z,16.58
2023-07-03T23:56:58.177Z,16.28
